Time;durP1;ratioP1;P1;durP2;ratioP2;P2;SDS_P1;SDS_P2;PMS_P1;PMS_P2;Temp;Humidity;BMP_temperature;BMP_pressure;BME280_temperature;BME280_humidity;BME280_pressure;Samples;Min_cycle;Max_cycle;Signal;HPM_P1;HPM_P2
2021/03/01 00:02:19;;;;;;;0.00;0.00;;;4.00;1.00;;;;;;5070882;28;20465;-70
2021/03/01 00:04:45;;;;;;;0.00;0.00;;;4.00;1.00;;;;;;5070733;28;20419;-71
2021/03/01 00:07:11;;;;;;;0.00;0.00;;;3.90;1.00;;;;;;5071197;28;20416;-70
2021/03/01 00:09:37;;;;;;;0.00;0.00;;;4.00;1.00;;;;;;5070220;28;20884;-69
2021/03/01 00:12:04;;;;;;;0.00;0.00;;;4.00;1.00;;;;;;5071057;28;20415;-70
2021/03/01 00:14:31;;;;;;;0.00;0.00;;;4.00;1.00;;;;;;5070627;28;20831;-71
2021/03/01 00:16:58;;;;;;;0.00;0.00;;;3.90;1.00;;;;;;5071143;28;20419;-69
2021/03/01 00:19:24;;;;;;;0.00;0.00;;;3.90;1.00;;;;;;5070323;28;20418;-71
2021/03/01 00:21:50;;;;;;;0.00;0.00;;;3.80;1.00;;;;;;5070952;28;20469;-71
2021/03/01 00:24:17;;;;;;;0.00;0.00;;;3.80;1.00;;;;;;5070507;28;20423;-71
2021/03/01 00:26:43;;;;;;;0.00;0.00;;;3.70;1.00;;;;;;5070684;28;20408;-71
2021/03/01 00:29:09;;;;;;;0.00;0.00;;;3.70;1.00;;;;;;5070763;28;20415;-71
2021/03/01 00:31:36;;;;;;;0.00;0.00;;;3.70;1.00;;;;;;5070631;28;20407;-71
2021/03/01 00:34:02;;;;;;;0.00;0.00;;;3.70;1.00;;;;;;5070605;28;20791;-70
2021/03/01 00:36:28;;;;;;;0.00;0.00;;;3.70;1.00;;;;;;5070819;28;20500;-71
2021/03/01 00:38:54;;;;;;;0.00;0.00;;;3.70;1.00;;;;;;5070185;28;20465;-71
2021/03/01 00:41:20;;;;;;;0.00;0.00;;;3.60;1.00;;;;;;5070876;28;20407;-71
2021/03/01 00:43:47;;;;;;;0.00;0.00;;;3.50;1.00;;;;;;5070560;28;20419;-70
2021/03/01 00:46:13;;;;;;;0.00;0.00;;;3.50;1.00;;;;;;5070639;28;20411;-71
2021/03/01 00:48:40;;;;;;;0.00;0.00;;;3.60;1.00;;;;;;5070227;28;20415;-70
2021/03/01 00:51:06;;;;;;;0.00;0.00;;;3.60;1.00;;;;;;5070561;28;20423;-71
2021/03/01 00:53:32;;;;;;;0.00;0.00;;;3.60;1.00;;;;;;5070754;28;20464;-71
2021/03/01 00:55:58;;;;;;;0.00;0.00;;;3.60;1.00;;;;;;5070375;28;20419;-71
2021/03/01 00:58:24;;;;;;;0.00;0.00;;;3.60;1.00;;;;;;5070261;28;20415;-71
2021/03/01 01:00:51;;;;;;;0.00;0.00;;;3.60;1.00;;;;;;5070076;28;20461;-70
2021/03/01 01:03:19;;;;;;;0.00;0.00;;;3.50;1.00;;;;;;5070674;28;20563;-70
2021/03/01 01:05:47;;;;;;;0.00;0.00;;;3.50;1.00;;;;;;5070573;28;20411;-71
2021/03/01 01:08:13;;;;;;;0.00;0.00;;;3.40;1.00;;;;;;5070304;28;20776;-70
2021/03/01 01:10:40;;;;;;;0.00;0.00;;;3.50;1.00;;;;;;5070350;28;20461;-71
2021/03/01 01:13:07;;;;;;;0.00;0.00;;;3.50;1.00;;;;;;5070058;28;20408;-70
2021/03/01 01:15:34;;;;;;;0.00;0.00;;;3.40;1.00;;;;;;5070059;28;20423;-70
2021/03/01 01:18:00;;;;;;;0.00;0.00;;;3.50;1.00;;;;;;5069896;28;20411;-70
2021/03/01 01:20:26;;;;;;;0.00;0.00;;;3.40;1.00;;;;;;5069982;28;20888;-70
2021/03/01 01:22:53;;;;;;;0.00;0.00;;;3.40;1.00;;;;;;5072368;28;20488;-70
2021/03/01 01:25:20;;;;;;;0.00;0.00;;;3.40;1.00;;;;;;5073787;28;20416;-70
2021/03/01 01:27:46;;;;;;;0.00;0.00;;;3.40;1.00;;;;;;5073983;28;20826;-70
2021/03/01 01:30:15;;;;;;;0.00;0.00;;;3.40;1.00;;;;;;5073238;28;20949;-70
2021/03/01 01:32:41;;;;;;;0.00;0.00;;;3.40;1.00;;;;;;5074078;28;20412;-71
2021/03/01 01:35:09;;;;;;;0.00;0.00;;;3.40;1.00;;;;;;5073811;28;20435;-71
2021/03/01 01:37:36;;;;;;;0.00;0.00;;;3.40;1.00;;;;;;5073504;28;20412;-70
2021/03/01 01:40:05;;;;;;;0.00;0.00;;;3.30;1.00;;;;;;5073246;28;20416;-70
2021/03/01 01:42:31;;;;;;;0.00;0.00;;;3.30;1.00;;;;;;5073283;28;20411;-70
2021/03/01 01:44:58;;;;;;;0.00;0.00;;;3.20;1.00;;;;;;5073461;28;20553;-71
2021/03/01 01:47:24;;;;;;;0.00;0.00;;;3.30;1.00;;;;;;5073073;28;20419;-70
2021/03/01 01:49:51;;;;;;;0.00;0.00;;;3.30;1.00;;;;;;5073416;28;20420;-69
2021/03/01 01:52:17;;;;;;;0.00;0.00;;;3.30;1.00;;;;;;5073639;28;20892;-71
2021/03/01 01:54:44;;;;;;;0.00;0.00;;;3.30;1.00;;;;;;5073263;28;21000;-70
2021/03/01 01:57:13;;;;;;;0.00;0.00;;;3.30;11.50;;;;;;5073085;28;20419;-70
2021/03/01 01:59:40;;;;;;;0.00;0.00;;;3.30;1.00;;;;;;5072853;28;20426;-70
2021/03/01 02:02:06;;;;;;;0.00;0.00;;;3.30;1.00;;;;;;5073481;28;20485;-70
2021/03/01 02:04:35;;;;;;;0.00;0.00;;;3.30;1.00;;;;;;5073013;28;20943;-69
2021/03/01 02:07:09;;;;;;;0.00;0.00;;;3.30;3.50;;;;;;5073351;28;20410;-70
2021/03/01 02:09:47;;;;;;;0.00;0.00;;;3.30;3.50;;;;;;5072665;28;20423;-70
2021/03/01 02:12:21;;;;;;;0.00;0.00;;;3.30;6.00;;;;;;5072472;28;20487;-71
2021/03/01 02:15:01;;;;;;;0.00;0.00;;;3.40;9.00;;;;;;5072749;28;21023;-70
2021/03/01 02:17:27;;;;;;;0.00;0.00;;;3.40;16.30;;;;;;5072657;28;20772;-70
2021/03/01 02:19:53;;;;;;;0.00;0.00;;;3.40;16.30;;;;;;5072568;28;20497;-70
2021/03/01 02:22:20;;;;;;;0.00;0.00;;;3.40;14.30;;;;;;5073064;28;20827;-71
2021/03/01 02:24:50;;;;;;;0.00;0.00;;;3.40;15.80;;;;;;5073392;28;20420;-71
2021/03/01 02:27:21;;;;;;;0.00;0.00;;;3.40;12.70;;;;;;5072637;28;20408;-70
2021/03/01 02:29:48;;;;;;;0.00;0.00;;;3.40;12.20;;;;;;5072587;28;20434;-71
2021/03/01 02:32:15;;;;;;;0.00;0.00;;;3.50;13.50;;;;;;5072561;28;20415;-70
2021/03/01 02:34:43;;;;;;;0.00;0.00;;;3.40;10.50;;;;;;5072745;28;20776;-71
2021/03/01 02:37:13;;;;;;;0.00;0.00;;;3.40;3.10;;;;;;5072702;28;20436;-71
2021/03/01 02:39:43;;;;;;;0.00;0.00;;;3.40;6.00;;;;;;5071979;28;20434;-71
2021/03/01 02:42:11;;;;;;;0.00;0.00;;;3.30;11.60;;;;;;5072535;28;20469;-70
2021/03/01 02:44:38;;;;;;;0.00;0.00;;;3.40;1.00;;;;;;5072172;28;20758;-70
2021/03/01 02:47:05;;;;;;;0.00;0.00;;;3.30;1.00;;;;;;5072261;28;20411;-71
2021/03/01 02:49:32;;;;;;;0.00;0.00;;;3.30;1.00;;;;;;5071838;28;20415;-71
2021/03/01 02:52:00;;;;;;;0.00;0.00;;;3.30;1.00;;;;;;5072221;28;20468;-71
2021/03/01 02:54:28;;;;;;;0.00;0.00;;;3.30;1.00;;;;;;5072227;28;20419;-70
2021/03/01 02:56:57;;;;;;;0.00;0.00;;;3.30;11.90;;;;;;5071951;28;20795;-70
2021/03/01 02:59:25;;;;;;;0.00;0.00;;;3.40;16.80;;;;;;5071768;28;20456;-71
2021/03/01 03:01:52;;;;;;;0.00;0.00;;;3.40;16.80;;;;;;5071651;28;20427;-71
2021/03/01 03:04:20;;;;;;;0.00;0.00;;;3.50;18.00;;;;;;5072058;28;20434;-70
2021/03/01 03:06:48;;;;;;;0.00;0.00;;;3.50;15.00;;;;;;5072121;28;20408;-71
2021/03/01 03:09:15;;;;;;;0.00;0.00;;;3.50;14.50;;;;;;5071386;28;20415;-71
2021/03/01 03:11:43;;;;;;;0.00;0.00;;;3.40;3.00;;;;;;5071877;28;20415;-71
2021/03/01 03:14:14;;;;;;;0.00;0.00;;;3.40;1.00;;;;;;5071331;28;20831;-70
2021/03/01 03:16:41;;;;;;;0.00;0.00;;;3.30;1.00;;;;;;5071914;28;20497;-71
2021/03/01 03:19:09;;;;;;;0.00;0.00;;;3.20;1.00;;;;;;5071225;28;20407;-71
2021/03/01 03:21:35;;;;;;;0.00;0.00;;;3.20;1.00;;;;;;5071759;28;20420;-71
2021/03/01 03:24:04;;;;;;;0.00;0.00;;;3.30;1.00;;;;;;5071666;28;20477;-71
2021/03/01 03:26:30;;;;;;;0.00;0.00;;;3.20;1.00;;;;;;5071438;28;20415;-71
2021/03/01 03:28:56;;;;;;;0.00;0.00;;;3.20;8.90;;;;;;5071101;28;20930;-69
2021/03/01 03:31:23;;;;;;;0.00;0.00;;;3.20;13.90;;;;;;5071442;28;20424;-71
2021/03/01 03:33:52;;;;;;;0.00;0.00;;;3.20;12.30;;;;;;5071547;28;20420;-71
2021/03/01 03:36:22;;;;;;;0.00;0.00;;;3.20;22.60;;;;;;5071363;28;20455;-70
2021/03/01 03:38:57;;;;;;;0.00;0.00;;;3.30;28.30;;;;;;5070999;28;20415;-71
2021/03/01 03:41:25;;;;;;;0.00;0.00;;;3.30;26.80;;;;;;5071292;28;20415;-70
2021/03/01 03:43:52;;;;;;;0.00;0.00;;;3.40;35.20;;;;;;5071393;28;20473;-71
2021/03/01 03:46:19;;;;;;;0.00;0.00;;;3.40;33.90;;;;;;5071000;28;20411;-71
2021/03/01 03:48:50;;;;;;;0.00;0.00;;;3.40;28.30;;;;;;5070661;28;20473;-71
2021/03/01 03:51:19;;;;;;;0.00;0.00;;;3.40;26.90;;;;;;5071314;28;20419;-71
2021/03/01 03:53:49;;;;;;;0.00;0.00;;;3.30;22.60;;;;;;5070875;28;20884;-69
2021/03/01 03:56:20;;;;;;;0.00;0.00;;;3.30;25.60;;;;;;5071006;28;20431;-71
2021/03/01 03:58:50;;;;;;;0.00;0.00;;;3.30;25.50;;;;;;5070889;28;20458;-71
2021/03/01 04:01:19;;;;;;;0.00;0.00;;;3.30;26.30;;;;;;5070937;28;20411;-71
2021/03/01 04:03:47;;;;;;;0.00;0.00;;;3.30;32.70;;;;;;5071080;28;20839;-70
2021/03/01 04:06:16;;;;;;;0.00;0.00;;;3.40;32.60;;;;;;5070753;28;20420;-71
2021/03/01 04:08:46;;;;;;;0.00;0.00;;;3.40;38.90;;;;;;5070412;28;20445;-71
2021/03/01 04:11:13;;;;;;;0.00;0.00;;;3.50;39.30;;;;;;5071018;28;20403;-71
2021/03/01 04:13:44;;;;;;;0.00;0.00;;;3.50;39.40;;;;;;5070850;28;20418;-70
2021/03/01 04:16:12;;;;;;;0.00;0.00;;;3.50;36.80;;;;;;5070733;28;20484;-70
2021/03/01 04:18:41;;;;;;;0.00;0.00;;;3.50;36.20;;;;;;5070193;28;20419;-71
2021/03/01 04:21:10;;;;;;;0.00;0.00;;;3.40;24.30;;;;;;5070676;28;20420;-69
2021/03/01 04:23:37;;;;;;;0.00;0.00;;;3.40;15.20;;;;;;5070497;28;20412;-70
2021/03/01 04:26:05;;;;;;;0.00;0.00;;;3.30;13.00;;;;;;5070969;28;20415;-71
2021/03/01 04:28:32;;;;;;;0.00;0.00;;;3.30;12.40;;;;;;5071192;28;20776;-70
2021/03/01 04:31:02;;;;;;;0.00;0.00;;;3.30;17.20;;;;;;5070709;28;20408;-71
2021/03/01 04:33:29;;;;;;;0.00;0.00;;;3.40;25.70;;;;;;5070814;28;20407;-70
2021/03/01 04:35:56;;;;;;;0.00;0.00;;;3.40;28.80;;;;;;5070375;28;20974;-70
2021/03/01 04:38:23;;;;;;;0.00;0.00;;;3.50;35.70;;;;;;5070674;28;20412;-70
2021/03/01 04:40:50;;;;;;;0.00;0.00;;;3.50;32.50;;;;;;5070094;28;20408;-71
2021/03/01 04:43:19;;;;;;;0.00;0.00;;;3.50;26.30;;;;;;5070614;28;20913;-71
2021/03/01 04:45:45;;;;;;;0.00;0.00;;;3.50;23.10;;;;;;5070558;28;20411;-71
2021/03/01 04:48:13;;;;;;;0.00;0.00;;;3.50;26.30;;;;;;5070212;28;20415;-71
2021/03/01 04:50:40;;;;;;;0.00;0.00;;;3.30;15.50;;;;;;5070393;28;20434;-70
2021/03/01 04:53:06;;;;;;;0.00;0.00;;;3.30;17.70;;;;;;5070626;28;20415;-71
2021/03/01 04:55:33;;;;;;;0.00;0.00;;;3.30;21.50;;;;;;5070427;28;20931;-71
2021/03/01 04:58:00;;;;;;;0.00;0.00;;;3.30;21.90;;;;;;5072697;28;20776;-71
2021/03/01 05:00:26;;;;;;;0.00;0.00;;;3.20;14.60;;;;;;5073967;28;20407;-71
2021/03/01 05:02:53;;;;;;;0.00;0.00;;;3.30;21.20;;;;;;5074045;28;20904;-70
2021/03/01 05:05:20;;;;;;;0.00;0.00;;;3.30;25.50;;;;;;5074368;28;20818;-71
2021/03/01 05:07:48;;;;;;;0.00;0.00;;;3.20;21.50;;;;;;5074290;28;20419;-70
2021/03/01 05:10:15;;;;;;;0.00;0.00;;;3.20;26.20;;;;;;5073563;28;20442;-70
2021/03/01 05:12:42;;;;;;;0.00;0.00;;;3.20;32.00;;;;;;5071716;28;20415;-70
2021/03/01 05:15:09;;;;;;;0.00;0.00;;;3.20;34.70;;;;;;5073518;28;20412;-71
2021/03/01 05:17:37;;;;;;;0.00;0.00;;;3.20;41.70;;;;;;5073951;28;20420;-71
2021/03/01 05:20:05;;;;;;;0.00;0.00;;;3.30;49.10;;;;;;5073578;28;20408;-71
2021/03/01 05:22:31;;;;;;;0.00;0.00;;;3.30;52.60;;;;;;5074211;28;20427;-69
2021/03/01 05:24:57;;;;;;;0.00;0.00;;;3.30;55.00;;;;;;5074253;28;20426;-69
2021/03/01 05:27:23;;;;;;;0.00;0.00;;;3.30;53.60;;;;;;5074830;28;20412;-70
2021/03/01 05:29:50;;;;;;;0.00;0.00;;;3.30;57.40;;;;;;5074155;28;20411;-71
2021/03/01 05:32:17;;;;;;;0.00;0.00;;;3.40;65.80;;;;;;5074973;28;20407;-71
2021/03/01 05:34:43;;;;;;;0.00;0.00;;;3.50;92.60;;;;;;5075740;28;20412;-70
2021/03/01 05:37:13;;;;;;;0.00;0.00;;;3.40;92.30;;;;;;5076456;28;20423;-71
2021/03/01 05:39:39;;;;;;;0.00;0.00;;;3.30;90.20;;;;;;5076298;28;20469;-71
2021/03/01 05:42:06;;;;;;;0.00;0.00;;;3.20;81.30;;;;;;5075576;28;20411;-71
2021/03/01 05:44:33;;;;;;;0.00;0.00;;;3.30;87.60;;;;;;5073464;28;20411;-70
2021/03/01 05:47:00;;;;;;;0.00;0.00;;;3.20;83.50;;;;;;5073404;28;20465;-70
2021/03/01 05:49:27;;;;;;;0.00;0.00;;;3.20;80.70;;;;;;5073206;28;20784;-70
2021/03/01 05:51:58;;;;;;;0.00;0.00;;;3.20;74.30;;;;;;5073302;28;20411;-70
2021/03/01 05:54:28;;;;;;;0.00;0.00;;;3.20;77.70;;;;;;5073497;28;20465;-70
2021/03/01 05:56:54;;;;;;;0.00;0.00;;;3.20;63.40;;;;;;5072797;28;21081;-70
2021/03/01 05:59:20;;;;;;;0.00;0.00;;;3.20;78.40;;;;;;5073174;28;20419;-70
2021/03/01 06:01:47;;;;;;;0.00;0.00;;;3.10;76.40;;;;;;5074537;28;20434;-71
2021/03/01 06:04:14;;;;;;;0.00;0.00;;;3.20;80.80;;;;;;5075864;28;20465;-69
2021/03/01 06:06:41;;;;;;;0.00;0.00;;;3.20;80.50;;;;;;5075431;28;20412;-71
2021/03/01 06:09:07;;;;;;;0.00;0.00;;;3.20;82.70;;;;;;5073223;28;20446;-70
2021/03/01 06:11:34;;;;;;;0.00;0.00;;;3.10;78.70;;;;;;5075649;28;20415;-70
2021/03/01 06:14:02;;;;;;;0.00;0.00;;;3.10;69.40;;;;;;5074286;28;20423;-71
2021/03/01 06:16:29;;;;;;;0.00;0.00;;;3.00;54.60;;;;;;5074332;28;20431;-69
2021/03/01 06:18:55;;;;;;;0.00;0.00;;;2.70;32.90;;;;;;5078632;28;20416;-68
2021/03/01 06:21:23;;;;;;;0.00;0.00;;;2.70;43.40;;;;;;5080132;28;20411;-69
2021/03/01 06:23:50;;;;;;;0.00;0.00;;;2.60;40.20;;;;;;5076689;28;20443;-67
2021/03/01 06:26:20;;;;;;;0.00;0.00;;;2.60;44.70;;;;;;5082423;28;20423;-68
2021/03/01 06:28:48;;;;;;;0.00;0.00;;;2.60;50.00;;;;;;5083116;28;20469;-67
2021/03/01 06:31:33;;;;;;;0.00;0.00;;;2.50;37.10;;;;;;5082522;28;20408;-68
2021/03/01 06:34:18;;;;;;;0.00;0.00;;;2.60;49.10;;;;;;5078147;28;20423;-69
2021/03/01 06:37:04;;;;;;;0.00;0.00;;;2.50;50.80;;;;;;5076346;28;20489;-69
2021/03/01 06:39:34;;;;;;;0.00;0.00;;;2.50;54.80;;;;;;5073892;28;20901;-71
2021/03/01 06:42:19;;;;;;;0.00;0.00;;;2.60;61.30;;;;;;5072902;28;20500;-71
2021/03/01 06:44:47;;;;;;;0.00;0.00;;;2.60;65.00;;;;;;5071875;28;20892;-69
2021/03/01 06:47:14;;;;;;;0.00;0.00;;;2.60;63.40;;;;;;5072090;28;20443;-68
2021/03/01 06:49:42;;;;;;;0.00;0.00;;;2.60;55.80;;;;;;5071785;28;20416;-68
2021/03/01 06:52:09;;;;;;;0.00;0.00;;;2.60;59.00;;;;;;5072329;28;20427;-70
2021/03/01 06:54:36;;;;;;;0.00;0.00;;;2.60;65.40;;;;;;5071545;28;20412;-69
2021/03/01 06:57:02;;;;;;;0.00;0.00;;;2.50;53.90;;;;;;5071923;28;20420;-68
2021/03/01 06:59:28;;;;;;;0.00;0.00;;;2.60;58.80;;;;;;5071619;28;20851;-68
2021/03/01 07:01:56;;;;;;;0.00;0.00;;;2.60;63.60;;;;;;5071451;28;20485;-69
2021/03/01 07:04:47;;;;;;;0.00;0.00;;;2.70;71.30;;;;;;5071543;28;20411;-70
2021/03/01 07:07:34;;;;;;;0.00;0.00;;;2.70;80.30;;;;;;5070651;28;20431;-68
2021/03/01 07:10:00;;;;;;;0.00;0.00;;;2.80;99.90;;;;;;5071358;28;20419;-69
2021/03/01 07:12:36;;;;;;;0.00;0.00;;;2.90;87.80;;;;;;5071481;28;20415;-67
2021/03/01 07:15:03;;;;;;;0.00;0.00;;;2.90;87.20;;;;;;5071208;28;20477;-67
2021/03/01 07:17:30;;;;;;;0.00;0.00;;;2.90;88.30;;;;;;5071107;28;20784;-66
2021/03/01 07:19:56;;;;;;;0.00;0.00;;;2.90;86.60;;;;;;5069970;28;20415;-68
2021/03/01 07:22:24;;;;;;;0.00;0.00;;;3.00;85.00;;;;;;5071348;28;20434;-73
2021/03/01 07:24:53;;;;;;;0.00;0.00;;;3.00;99.90;;;;;;5070627;28;20564;-70
2021/03/01 07:27:20;;;;;;;0.00;0.00;;;3.10;90.30;;;;;;5071430;28;20441;-71
2021/03/01 07:29:51;;;;;;;0.00;0.00;;;3.30;98.80;;;;;;5070654;28;20465;-71
2021/03/01 07:32:21;;;;;;;0.00;0.00;;;3.50;99.90;;;;;;5070830;28;20470;-72
2021/03/01 07:34:49;;;;;;;0.00;0.00;;;3.60;99.90;;;;;;5070697;28;20414;-72
2021/03/01 07:37:16;;;;;;;0.00;0.00;;;3.70;99.90;;;;;;5070600;28;20784;-71
2021/03/01 07:39:43;;;;;;;0.00;0.00;;;3.70;94.00;;;;;;5070378;28;20411;-67
2021/03/01 07:42:12;;;;;;;0.00;0.00;;;3.70;83.70;;;;;;5070911;28;20415;-67
2021/03/01 07:44:39;;;;;;;0.00;0.00;;;3.50;33.70;;;;;;5070572;28;20407;-66
2021/03/01 07:47:07;;;;;;;0.00;0.00;;;3.40;16.90;;;;;;5070837;28;20412;-69
2021/03/01 07:49:48;;;;;;;0.00;0.00;;;3.30;4.20;;;;;;5070416;28;20422;-67
2021/03/01 07:52:34;;;;;;;0.00;0.00;;;3.20;22.50;;;;;;5070500;28;20484;-69
2021/03/01 07:55:05;;;;;;;0.00;0.00;;;3.30;1.00;;;;;;5070436;28;20415;-69
2021/03/01 07:57:32;;;;;;;0.00;0.00;;;3.20;1.00;;;;;;5070525;28;20427;-68
2021/03/01 08:00:01;;;;;;;0.00;0.00;;;3.20;1.00;;;;;;5069969;28;20959;-69
2021/03/01 08:02:30;;;;;;;0.00;0.00;;;3.30;1.00;;;;;;5070290;28;20416;-70
2021/03/01 08:04:58;;;;;;;0.00;0.00;;;3.20;1.90;;;;;;5070719;28;20822;-69
2021/03/01 08:07:38;;;;;;;0.00;0.00;;;3.30;16.80;;;;;;5070397;28;20411;-68
2021/03/01 08:10:18;;;;;;;0.00;0.00;;;3.30;19.10;;;;;;5070155;28;20473;-68
2021/03/01 08:13:01;;;;;;;0.00;0.00;;;3.40;20.20;;;;;;5070285;28;20415;-68
2021/03/01 08:15:39;;;;;;;0.00;0.00;;;3.40;13.60;;;;;;5070556;28;20411;-69
2021/03/01 08:18:06;;;;;;;0.00;0.00;;;3.50;20.70;;;;;;5070262;28;20418;-68
2021/03/01 08:20:41;;;;;;;0.00;0.00;;;3.50;21.30;;;;;;5069814;28;20415;-69
2021/03/01 08:23:21;;;;;;;0.00;0.00;;;3.50;15.80;;;;;;5070468;28;20419;-68
2021/03/01 08:25:58;;;;;;;0.00;0.00;;;3.50;11.60;;;;;;5070091;28;20904;-67
2021/03/01 08:28:53;;;;;;;0.00;0.00;;;3.50;1.00;;;;;;5070344;28;20514;-68
2021/03/01 08:31:40;;;;;;;0.00;0.00;;;3.50;1.00;;;;;;5072118;28;20476;-72
2021/03/01 08:34:36;;;;;;;0.00;0.00;;;3.40;1.00;;;;;;5074118;28;20423;-71
2021/03/01 08:37:05;;;;;;;0.00;0.00;;;3.40;1.00;;;;;;5073977;28;20918;-71
2021/03/01 08:39:57;;;;;;;0.00;0.00;;;3.50;12.70;;;;;;5073680;28;20485;-71
2021/03/01 08:42:44;;;;;;;0.00;0.00;;;3.60;1.00;;;;;;5074197;28;20490;-72
2021/03/01 08:45:11;;;;;;;0.00;0.00;;;3.60;1.60;;;;;;5074415;28;20422;-73
2021/03/01 08:47:48;;;;;;;0.00;0.00;;;3.70;13.00;;;;;;5074392;28;20407;-73
2021/03/01 08:50:20;;;;;;;0.00;0.00;;;3.80;8.10;;;;;;5074016;28;20518;-74
2021/03/01 08:52:48;;;;;;;0.00;0.00;;;3.80;6.10;;;;;;5074177;28;20469;-73
2021/03/01 08:55:29;;;;;;;0.00;0.00;;;3.80;1.00;;;;;;5074694;28;20953;-73
2021/03/01 08:58:01;;;;;;;0.00;0.00;;;3.80;25.80;;;;;;5073787;28;20423;-71
2021/03/01 09:00:30;;;;;;;0.00;0.00;;;3.90;20.10;;;;;;5073569;28;20749;-70
2021/03/01 09:03:16;;;;;;;0.00;0.00;;;3.90;15.00;;;;;;5073934;28;20411;-70
2021/03/01 09:05:44;;;;;;;0.00;0.00;;;4.00;30.20;;;;;;5074012;28;20417;-71
2021/03/01 09:08:11;;;;;;;0.00;0.00;;;3.90;12.70;;;;;;5073392;28;20468;-68
2021/03/01 09:10:39;;;;;;;0.00;0.00;;;3.90;2.00;;;;;;5073287;28;20418;-70
2021/03/01 09:13:08;;;;;;;0.00;0.00;;;3.80;1.00;;;;;;5073428;28;20415;-70
2021/03/01 09:15:34;;;;;;;0.00;0.00;;;3.90;1.00;;;;;;5073613;28;20761;-69
2021/03/01 09:18:01;;;;;;;0.00;0.00;;;3.80;1.00;;;;;;5073143;28;20423;-70
2021/03/01 09:20:27;;;;;;;0.00;0.00;;;3.70;1.00;;;;;;5073312;28;20418;-68
2021/03/01 09:22:53;;;;;;;0.00;0.00;;;3.70;1.00;;;;;;5073563;28;20420;-69
2021/03/01 09:25:27;;;;;;;0.00;0.00;;;3.70;1.00;;;;;;5073253;28;20424;-67
2021/03/01 09:27:53;;;;;;;0.00;0.00;;;3.70;1.00;;;;;;5073701;28;20415;-70
2021/03/01 09:30:21;;;;;;;0.00;0.00;;;3.80;1.00;;;;;;5073063;28;20912;-68
2021/03/01 09:32:55;;;;;;;0.00;0.00;;;3.90;1.00;;;;;;5073285;28;20896;-71
2021/03/01 09:35:22;;;;;;;0.00;0.00;;;4.00;1.00;;;;;;5073198;28;20422;-70
2021/03/01 09:37:49;;;;;;;0.00;0.00;;;4.00;1.00;;;;;;5072706;28;20432;-70
2021/03/01 09:40:18;;;;;;;0.00;0.00;;;4.10;1.00;;;;;;5073073;28;20434;-69
2021/03/01 09:42:50;;;;;;;0.00;0.00;;;4.20;1.00;;;;;;5072111;28;20403;-69
2021/03/01 09:45:17;;;;;;;0.00;0.00;;;4.20;1.00;;;;;;5073117;28;20416;-68
2021/03/01 09:47:46;;;;;;;0.00;0.00;;;4.40;1.00;;;;;;5072697;28;20477;-69
2021/03/01 09:50:13;;;;;;;0.00;0.00;;;4.50;1.00;;;;;;5072539;28;20411;-69
2021/03/01 09:52:39;;;;;;;0.00;0.00;;;4.60;1.00;;;;;;5072920;28;20473;-69
2021/03/01 09:55:07;;;;;;;0.00;0.00;;;4.60;1.00;;;;;;5072703;28;20419;-70
2021/03/01 09:57:33;;;;;;;0.00;0.00;;;4.70;1.00;;;;;;5072788;28;20435;-70
2021/03/01 09:59:59;;;;;;;0.00;0.00;;;4.50;1.00;;;;;;5072187;28;20411;-69
2021/03/01 10:02:26;;;;;;;0.00;0.00;;;4.50;1.00;;;;;;5072672;28;20422;-69
2021/03/01 10:05:09;;;;;;;0.00;0.00;;;4.50;1.00;;;;;;5072327;28;20419;-70
2021/03/01 10:07:35;;;;;;;0.00;0.00;;;4.50;1.00;;;;;;5072879;28;20403;-68
2021/03/01 10:10:12;;;;;;;0.00;0.00;;;4.50;1.00;;;;;;5072455;28;20422;-70
2021/03/01 10:12:43;;;;;;;0.00;0.00;;;4.60;1.00;;;;;;5072117;28;20414;-70
2021/03/01 10:15:11;;;;;;;0.00;0.00;;;4.50;1.00;;;;;;5072116;28;20416;-69
2021/03/01 10:17:37;;;;;;;0.00;0.00;;;4.50;1.00;;;;;;5072114;28;20427;-69
2021/03/01 10:20:06;;;;;;;0.00;0.00;;;4.30;1.00;;;;;;5072215;28;20415;-68
2021/03/01 10:23:03;;;;;;;0.00;0.00;;;4.20;1.00;;;;;;5071749;28;21204;-68
2021/03/01 10:25:35;;;;;;;0.00;0.00;;;4.30;1.00;;;;;;5072360;28;20510;-69
2021/03/01 10:28:04;;;;;;;0.00;0.00;;;4.30;1.00;;;;;;5073961;28;20416;-70
2021/03/01 10:30:30;;;;;;;0.00;0.00;;;4.50;1.00;;;;;;5072352;28;20420;-69
2021/03/01 10:33:05;;;;;;;0.00;0.00;;;4.70;1.00;;;;;;5073005;28;20453;-70
2021/03/01 10:35:39;;;;;;;0.00;0.00;;;4.70;1.00;;;;;;5084374;28;20447;-70
2021/03/01 10:38:07;;;;;;;0.00;0.00;;;6.20;1.00;;;;;;5080901;28;20430;-71
2021/03/01 10:40:35;;;;;;;0.00;0.00;;;4.80;1.00;;;;;;5072724;28;20819;-71
2021/03/01 10:43:09;;;;;;;0.00;0.00;;;4.90;1.00;;;;;;5075263;28;20907;-70
2021/03/01 10:45:42;;;;;;;0.00;0.00;;;5.00;1.00;;;;;;5078759;28;20447;-70
2021/03/01 10:48:09;;;;;;;0.00;0.00;;;5.10;1.00;;;;;;5078296;28;20424;-70
2021/03/01 10:50:36;;;;;;;0.00;0.00;;;5.20;1.00;;;;;;5071958;28;20424;-70
2021/03/01 10:53:03;;;;;;;0.00;0.00;;;5.20;1.00;;;;;;5071584;28;20454;-70
2021/03/01 10:55:29;;;;;;;0.00;0.00;;;5.20;1.00;;;;;;5070948;28;20419;-69
2021/03/01 10:57:55;;;;;;;0.00;0.00;;;5.20;1.00;;;;;;5071729;28;20423;-70
2021/03/01 11:00:22;;;;;;;0.00;0.00;;;5.30;1.00;;;;;;5071202;28;20455;-72
2021/03/01 11:02:48;;;;;;;0.00;0.00;;;5.00;1.00;;;;;;5071467;28;20419;-70
2021/03/01 11:05:15;;;;;;;0.00;0.00;;;4.90;1.00;;;;;;5070909;28;20416;-67
2021/03/01 11:07:42;;;;;;;0.00;0.00;;;4.80;1.00;;;;;;5071667;28;20418;-68
2021/03/01 11:10:09;;;;;;;0.00;0.00;;;4.80;1.00;;;;;;5071173;28;20442;-67
2021/03/01 11:12:37;;;;;;;0.00;0.00;;;4.90;1.00;;;;;;5071193;28;20442;-67
2021/03/01 11:15:04;;;;;;;0.00;0.00;;;5.00;1.00;;;;;;5071094;28;20425;-71
2021/03/01 11:17:31;;;;;;;0.00;0.00;;;5.00;1.00;;;;;;5070958;28;20416;-71
2021/03/01 11:19:58;;;;;;;0.00;0.00;;;6.60;1.00;;;;;;5070610;28;20485;-69
2021/03/01 11:22:24;;;;;;;0.00;0.00;;;5.00;1.00;;;;;;5071076;28;20945;-69
2021/03/01 11:24:51;;;;;;;0.00;0.00;;;5.00;1.00;;;;;;5071042;28;20442;-68
2021/03/01 11:27:17;;;;;;;0.00;0.00;;;5.10;1.00;;;;;;5071311;28;20422;-68
2021/03/01 11:29:43;;;;;;;0.00;0.00;;;4.90;1.00;;;;;;5070978;28;20403;-69
2021/03/01 11:32:09;;;;;;;0.00;0.00;;;4.90;1.00;;;;;;5071307;28;20831;-65
2021/03/01 11:34:35;;;;;;;0.00;0.00;;;4.90;1.00;;;;;;5070766;28;20738;-66
2021/03/01 11:37:02;;;;;;;0.00;0.00;;;5.00;1.00;;;;;;5071039;28;20423;-68
2021/03/01 11:39:28;;;;;;;0.00;0.00;;;4.90;1.00;;;;;;5070977;28;20411;-67
2021/03/01 11:41:55;;;;;;;0.00;0.00;;;5.00;1.00;;;;;;5070799;28;20414;-68
2021/03/01 11:44:22;;;;;;;0.00;0.00;;;5.00;1.00;;;;;;5070753;28;20415;-71
2021/03/01 11:46:48;;;;;;;0.00;0.00;;;5.10;1.00;;;;;;5070309;28;20421;-67
2021/03/01 11:49:14;;;;;;;0.00;0.00;;;5.10;1.00;;;;;;5070749;28;20422;-66
2021/03/01 11:51:41;;;;;;;0.00;0.00;;;5.10;1.00;;;;;;5070813;28;20415;-67
2021/03/01 11:54:08;;;;;;;0.00;0.00;;;5.00;1.00;;;;;;5070630;28;20799;-67
2021/03/01 11:56:34;;;;;;;0.00;0.00;;;5.00;1.00;;;;;;5070679;28;20424;-68
2021/03/01 11:59:04;;;;;;;0.00;0.00;;;4.90;1.00;;;;;;5070400;28;20430;-69
2021/03/01 12:01:30;;;;;;;0.00;0.00;;;4.90;1.00;;;;;;5070023;28;20439;-69
2021/03/01 12:03:56;;;;;;;0.00;0.00;;;5.00;1.00;;;;;;5070205;28;20466;-70
2021/03/01 12:06:23;;;;;;;0.00;0.00;;;5.00;1.00;;;;;;5070472;28;20408;-71
2021/03/01 12:08:49;;;;;;;0.00;0.00;;;5.40;1.00;;;;;;5070491;28;20416;-71
2021/03/01 12:11:15;;;;;;;0.00;0.00;;;4.90;1.00;;;;;;5070200;28;20442;-71
2021/03/01 12:13:41;;;;;;;0.00;0.00;;;4.70;1.00;;;;;;5070202;28;20854;-72
2021/03/01 12:16:09;;;;;;;0.00;0.00;;;4.80;1.00;;;;;;5069720;28;21324;-71
2021/03/01 12:18:35;;;;;;;0.00;0.00;;;5.00;1.00;;;;;;5070591;28;20461;-69
2021/03/01 12:21:02;;;;;;;0.00;0.00;;;5.30;1.00;;;;;;5071322;28;20795;-71
2021/03/01 12:23:28;;;;;;;0.00;0.00;;;5.20;1.00;;;;;;5073672;28;20439;-69
2021/03/01 12:25:54;;;;;;;0.00;0.00;;;5.30;1.00;;;;;;5070822;28;20408;-68
2021/03/01 12:28:21;;;;;;;0.00;0.00;;;5.50;1.00;;;;;;5069962;28;20418;-70
2021/03/01 12:30:47;;;;;;;0.00;0.00;;;5.50;1.00;;;;;;5070206;28;20419;-73
2021/03/01 12:33:14;;;;;;;0.00;0.00;;;5.40;1.00;;;;;;5069815;28;20415;-72
2021/03/01 12:35:42;;;;;;;0.00;0.00;;;5.40;1.00;;;;;;5070066;28;20428;-75
2021/03/01 12:38:11;;;;;;;0.00;0.00;;;5.20;1.00;;;;;;5069538;28;20838;-74
2021/03/01 12:40:39;;;;;;;0.00;0.00;;;5.00;1.00;;;;;;5069727;28;20415;-74
2021/03/01 12:43:06;;;;;;;0.00;0.00;;;5.10;1.00;;;;;;5069623;28;20494;-73
2021/03/01 12:45:33;;;;;;;0.00;0.00;;;5.30;1.00;;;;;;5069466;28;20892;-72
2021/03/01 12:48:00;;;;;;;0.00;0.00;;;5.30;1.00;;;;;;5069901;28;20408;-72
2021/03/01 12:50:28;;;;;;;0.00;0.00;;;5.30;1.00;;;;;;5069882;28;20411;-72
2021/03/01 12:52:54;;;;;;;0.00;0.00;;;5.20;1.00;;;;;;5070017;28;20420;-71
2021/03/01 12:55:20;;;;;;;0.00;0.00;;;5.10;1.00;;;;;;5072099;28;20419;-68
2021/03/01 12:57:46;;;;;;;0.00;0.00;;;5.00;1.00;;;;;;5070234;28;20423;-73
2021/03/01 13:00:17;;;;;;;0.00;0.00;;;4.80;1.00;;;;;;5070036;28;20827;-72
2021/03/01 13:02:44;;;;;;;0.00;0.00;;;4.90;1.00;;;;;;5069640;28;20423;-72
2021/03/01 13:05:11;;;;;;;0.00;0.00;;;5.10;1.00;;;;;;5069550;28;20411;-69
2021/03/01 13:07:39;;;;;;;0.00;0.00;;;5.30;1.00;;;;;;5069864;28;20422;-69
2021/03/01 13:10:06;;;;;;;0.00;0.00;;;5.20;1.00;;;;;;5069174;28;20423;-71
2021/03/01 13:12:33;;;;;;;0.00;0.00;;;5.30;1.00;;;;;;5069990;28;20423;-69